Pagina principale
METAR-TAF:

METAR-TAF

Aeroporti :

Orange Municipal Airport

Orange, Massachusetts, Stati Uniti

latitudine: 42-34-18N, longitudine: 072-16-39W, altezza: 169 m

Osservazione

Il bollettino è stato emesso 50 minuti fa, alle 06:52 UTC
Vento calmo
Temperature 11°C
Umidità 94%
Pressione 1017 hPa
Visibilità: 16.1 km
Cielo sereno

METAR: KORE 240652Z AUTO 00000KT 10SM CLR 11/10 A3002 RMK AO2 SLP165 T01060100

Ora: 03:42 (07:42 UTC)


TAF: mancante

Osservazioni e previsioni meteorologiche di più di 4000 aeroporti (messaggi METAR e TAF).

Le stazioni disponibili sono rappresentate dai dischi gialli e rossi sulla carta.

Puntare il mouse per vedere il nome della stazione.

Clicca sopra per visualizzare le osservazioni e previsioni meteorologiche.

Per cambiare la mappa : fare clic sui pulsanti verdi con una croce nera per ingrandire, il pulsante verde con un trattino per diminuire, o sulla freccia verde per le mappe adiacenti.


METAR-TAF: